Terminal Aerodrome Forecast
Issued by NWS

Home | Current Version | Previous Version | Text Only | Print | Product List | Glossary Off
Versions: 1 2 3 4 5 6 7 8 9 10 11 12 13

661
FTUS43 KICT 221720
TAFRSL
TAF
KRSL 221720Z 2218/2318 22008KT P6SM SKC
     FM222000 15006KT P6SM SCT070
     FM222300 06010KT P6SM VCTS BKN070CB
     FM230300 06009KT P6SM VCTS SCT045CB BKN110
     FM230600 06008KT P6SM BKN120=

USA.gov is the U.S. government's official web portal to all federal, state and local government web resources and services.